createdAt,value
2022-10-20T00:01:06.829Z,2.30
2022-10-20T00:03:34.138Z,2.33
2022-10-20T00:06:08.250Z,2.60
2022-10-20T00:08:35.346Z,2.60
2022-10-20T00:11:02.448Z,2.40
2022-10-20T00:13:29.485Z,2.30
2022-10-20T00:15:57.111Z,2.67
2022-10-20T00:18:24.709Z,2.70
2022-10-20T00:20:52.431Z,2.90
2022-10-20T00:23:19.764Z,2.70
2022-10-20T00:25:47.059Z,2.37
2022-10-20T00:28:14.181Z,2.33
2022-10-20T00:30:41.499Z,2.40
2022-10-20T00:33:08.527Z,2.13
2022-10-20T00:35:38.275Z,2.30
2022-10-20T00:38:05.425Z,2.13
2022-10-20T00:40:32.535Z,2.30
2022-10-20T00:42:59.589Z,2.30
2022-10-20T00:45:26.780Z,2.40
2022-10-20T00:47:56.058Z,2.40
2022-10-20T00:50:28.232Z,2.47
2022-10-20T00:52:56.298Z,2.00
2022-10-20T00:55:25.975Z,1.90
2022-10-20T00:57:55.108Z,2.30
2022-10-20T01:00:22.550Z,2.10
2022-10-20T01:02:53.456Z,2.10
2022-10-20T01:05:20.989Z,2.30
2022-10-20T01:07:48.069Z,2.40
2022-10-20T01:10:15.356Z,2.40
2022-10-20T01:12:45.438Z,2.30
2022-10-20T01:15:15.379Z,2.63
2022-10-20T01:17:50.793Z,2.20
2022-10-20T01:20:42.565Z,2.30
2022-10-20T01:23:09.570Z,2.20
2022-10-20T01:25:48.588Z,2.37
2022-10-20T01:28:35.873Z,2.23
2022-10-20T01:31:06.323Z,2.37
2022-10-20T01:33:36.337Z,2.20
2022-10-20T01:36:12.478Z,2.23
2022-10-20T01:38:45.770Z,2.33
2022-10-20T01:41:22.544Z,2.50
2022-10-20T01:43:50.468Z,2.60
2022-10-20T01:46:19.825Z,2.53
2022-10-20T01:48:47.206Z,2.30
2022-10-20T01:51:14.363Z,2.13
2022-10-20T01:53:41.390Z,2.57
2022-10-20T01:56:14.126Z,2.37
2022-10-20T01:58:44.302Z,2.30
2022-10-20T02:01:31.698Z,2.30
2022-10-20T02:04:00.176Z,2.63
2022-10-20T02:06:42.344Z,2.40
2022-10-20T02:09:12.543Z,2.40
2022-10-20T02:11:39.606Z,2.80
2022-10-20T02:14:08.191Z,2.23
2022-10-20T02:16:37.736Z,2.43
2022-10-20T02:19:06.338Z,2.40
2022-10-20T02:21:33.367Z,2.50
2022-10-20T02:24:03.747Z,2.63
2022-10-20T02:26:32.273Z,2.60
2022-10-20T02:29:01.319Z,2.50
2022-10-20T02:31:28.538Z,2.67
2022-10-20T02:33:56.862Z,2.60
2022-10-20T02:36:27.013Z,2.70
2022-10-20T02:38:54.182Z,2.30
2022-10-20T02:41:21.189Z,2.70
2022-10-20T02:43:48.249Z,2.10
2022-10-20T02:46:16.967Z,2.33
2022-10-20T02:48:44.280Z,2.47
2022-10-20T02:51:11.776Z,2.60
2022-10-20T02:53:38.878Z,2.30
2022-10-20T02:56:05.979Z,2.10
2022-10-20T02:58:33.002Z,2.30
2022-10-20T03:01:00.029Z,2.07
2022-10-20T03:03:27.078Z,2.10
2022-10-20T03:05:54.225Z,2.50
2022-10-20T03:08:21.435Z,2.47
2022-10-20T03:10:48.446Z,2.60
2022-10-20T03:13:15.649Z,2.63
2022-10-20T03:15:42.853Z,2.60
2022-10-20T03:18:09.880Z,2.40
2022-10-20T03:20:36.965Z,2.67
2022-10-20T03:23:04.038Z,2.10
2022-10-20T03:25:31.721Z,2.07
2022-10-20T03:27:59.083Z,2.10
2022-10-20T03:30:26.277Z,2.27
2022-10-20T03:32:53.576Z,2.13
2022-10-20T03:35:20.686Z,2.13
2022-10-20T03:37:47.716Z,2.20
2022-10-20T03:40:14.807Z,2.27
2022-10-20T03:42:41.823Z,2.00
2022-10-20T03:45:09.021Z,2.20
2022-10-20T03:47:36.198Z,1.67
2022-10-20T03:52:36.569Z,1.90
2022-10-20T03:55:03.905Z,2.10
2022-10-20T03:57:30.966Z,2.00
2022-10-20T03:59:58.039Z,2.03
2022-10-20T04:02:28.203Z,2.43
2022-10-20T04:04:55.249Z,2.00
2022-10-20T04:07:22.278Z,2.07
2022-10-20T04:09:49.369Z,2.40
2022-10-20T04:12:16.380Z,2.30
2022-10-20T04:14:43.802Z,2.50
2022-10-20T04:17:10.819Z,2.73
2022-10-20T04:19:37.912Z,2.80
2022-10-20T04:22:04.915Z,2.43
2022-10-20T04:24:32.032Z,2.87
2022-10-20T04:26:59.046Z,2.37
2022-10-20T04:29:26.119Z,2.93
2022-10-20T04:31:53.169Z,2.67
2022-10-20T04:34:20.206Z,2.37
2022-10-20T04:36:47.309Z,2.53
2022-10-20T04:39:14.511Z,2.50
2022-10-20T04:41:41.824Z,2.57
2022-10-20T04:44:08.889Z,2.47
2022-10-20T04:46:35.912Z,2.73
2022-10-20T04:49:02.939Z,2.70
2022-10-20T04:51:29.967Z,2.10
2022-10-20T04:53:57.035Z,2.50
2022-10-20T04:56:24.438Z,2.43
2022-10-20T04:58:52.450Z,2.43
2022-10-20T05:01:19.843Z,2.87
2022-10-20T05:03:47.066Z,2.70
2022-10-20T05:06:15.899Z,2.30
2022-10-20T05:08:43.887Z,2.60
2022-10-20T05:11:11.157Z,2.60
2022-10-20T05:13:38.304Z,2.53
2022-10-20T05:16:05.931Z,2.53
2022-10-20T05:18:34.412Z,2.60
2022-10-20T05:21:08.937Z,2.67
2022-10-20T05:23:36.918Z,2.90
2022-10-20T05:26:05.019Z,2.40
2022-10-20T05:28:32.510Z,2.90
2022-10-20T05:31:06.780Z,2.50
2022-10-20T05:33:34.123Z,3.00
2022-10-20T05:36:01.186Z,2.57
2022-10-20T05:38:28.251Z,2.60
2022-10-20T05:40:55.298Z,2.40
2022-10-20T05:43:22.357Z,3.33
2022-10-20T05:45:54.287Z,2.60
2022-10-20T05:48:21.311Z,2.47
2022-10-20T05:50:48.468Z,2.50
2022-10-20T05:53:15.508Z,2.47
2022-10-20T05:55:42.570Z,2.73
2022-10-20T05:58:09.584Z,2.20
2022-10-20T06:00:41.783Z,2.10
2022-10-20T06:03:09.337Z,2.20
2022-10-20T06:05:36.436Z,2.20
2022-10-20T06:08:03.556Z,2.37
2022-10-20T06:10:30.587Z,2.40
2022-10-20T06:12:57.581Z,2.37
2022-10-20T06:15:24.615Z,2.50
2022-10-20T06:17:51.633Z,2.80
2022-10-20T06:20:18.660Z,2.63
2022-10-20T06:22:45.693Z,2.57
2022-10-20T06:25:13.109Z,2.50
2022-10-20T06:27:42.246Z,2.53
2022-10-20T06:30:09.566Z,2.53
2022-10-20T06:32:36.934Z,2.40
2022-10-20T06:35:04.195Z,2.43
2022-10-20T06:37:31.248Z,2.47
2022-10-20T06:39:58.300Z,3.00
2022-10-20T06:42:25.382Z,2.53
2022-10-20T06:44:52.402Z,2.73
2022-10-20T06:47:19.442Z,2.33
2022-10-20T06:49:48.807Z,2.70
2022-10-20T06:52:15.836Z,2.20
2022-10-20T06:54:42.911Z,2.70
2022-10-20T06:57:10.467Z,2.57
2022-10-20T06:59:38.682Z,2.47
2022-10-20T07:02:05.809Z,2.67
2022-10-20T07:04:32.847Z,2.73
2022-10-20T07:06:59.945Z,2.47
2022-10-20T07:09:27.038Z,2.43
2022-10-20T07:11:54.138Z,2.40
2022-10-20T07:14:21.332Z,2.40
2022-10-20T07:16:48.494Z,2.03
2022-10-20T07:19:15.932Z,2.20
2022-10-20T07:21:45.521Z,2.30
2022-10-20T07:24:13.331Z,2.60
2022-10-20T07:26:41.769Z,2.23
2022-10-20T07:29:08.903Z,2.40
2022-10-20T07:31:43.369Z,2.20
2022-10-20T07:34:24.915Z,2.13
2022-10-20T07:36:53.149Z,2.07
2022-10-20T07:39:20.210Z,2.10
2022-10-20T07:41:48.174Z,2.20
2022-10-20T07:44:16.083Z,1.87
2022-10-20T07:46:43.195Z,1.90
2022-10-20T07:49:42.981Z,2.23
2022-10-20T07:51:57.376Z,1.73
2022-10-20T07:54:24.415Z,1.87
2022-10-20T07:56:51.798Z,1.93
2022-10-20T07:59:18.894Z,2.03
2022-10-20T08:01:46.094Z,1.60
2022-10-20T08:04:13.233Z,1.70
2022-10-20T08:06:40.447Z,1.80
2022-10-20T08:09:07.735Z,2.00
2022-10-20T08:11:35.264Z,2.30
2022-10-20T08:14:02.447Z,2.00
2022-10-20T08:16:29.534Z,2.00
2022-10-20T08:18:58.423Z,2.00
2022-10-20T08:21:25.534Z,2.53
2022-10-20T08:23:52.696Z,2.17
2022-10-20T08:26:23.474Z,2.10
2022-10-20T08:28:51.214Z,2.20
2022-10-20T08:31:18.421Z,2.10
2022-10-20T08:33:48.864Z,2.63
2022-10-20T08:36:18.602Z,2.00
2022-10-20T08:38:45.756Z,2.37
2022-10-20T08:41:24.771Z,2.63
2022-10-20T08:43:53.398Z,2.00
2022-10-20T08:46:21.653Z,2.30
2022-10-20T08:48:48.665Z,2.23
2022-10-20T08:51:18.742Z,2.60
2022-10-20T08:53:46.442Z,2.23
2022-10-20T08:56:14.296Z,2.43
2022-10-20T08:58:45.367Z,2.10
2022-10-20T09:01:18.941Z,2.20
2022-10-20T09:03:46.213Z,2.00
2022-10-20T09:06:14.871Z,2.10
2022-10-20T09:08:42.702Z,2.33
2022-10-20T09:11:13.245Z,2.07
2022-10-20T09:13:40.366Z,2.13
2022-10-20T09:16:07.469Z,2.20
2022-10-20T09:18:34.850Z,2.37
2022-10-20T09:21:03.946Z,2.23
2022-10-20T09:23:42.558Z,2.23
2022-10-20T09:26:30.512Z,2.40
2022-10-20T09:29:14.075Z,2.50
2022-10-20T09:31:41.777Z,2.20
2022-10-20T09:34:20.928Z,2.10
2022-10-20T09:36:48.640Z,2.17
2022-10-20T09:39:19.881Z,2.30
2022-10-20T09:41:47.005Z,2.00
2022-10-20T09:44:24.357Z,1.97
2022-10-20T09:46:53.149Z,2.40
2022-10-20T09:49:25.544Z,2.20
2022-10-20T09:51:53.902Z,2.03
2022-10-20T09:54:23.545Z,2.17
2022-10-20T09:56:50.718Z,2.07
2022-10-20T09:59:30.628Z,2.00
2022-10-20T10:02:16.197Z,1.90
2022-10-20T10:04:45.230Z,2.30
2022-10-20T10:07:27.573Z,2.20
2022-10-20T10:10:00.385Z,2.30
2022-10-20T10:12:30.469Z,1.87
2022-10-20T10:15:01.195Z,2.07
2022-10-20T10:17:31.237Z,2.30
2022-10-20T10:19:58.314Z,2.40
2022-10-20T10:22:25.504Z,2.10
2022-10-20T10:24:54.836Z,2.33
2022-10-20T10:27:21.859Z,2.13
2022-10-20T10:29:48.946Z,2.20
2022-10-20T10:32:15.990Z,2.30
2022-10-20T10:34:46.047Z,2.30
2022-10-20T10:37:14.930Z,2.20
2022-10-20T10:39:42.679Z,2.27
2022-10-20T10:42:09.758Z,2.20
2022-10-20T10:44:45.828Z,2.10
2022-10-20T10:47:27.877Z,2.00
2022-10-20T10:50:13.571Z,1.90
2022-10-20T10:52:40.568Z,2.17
2022-10-20T10:55:07.669Z,2.40
2022-10-20T10:57:34.942Z,2.17
2022-10-20T11:00:03.286Z,1.80
2022-10-20T11:02:39.729Z,2.40
2022-10-20T11:05:19.208Z,2.10
2022-10-20T11:07:59.351Z,2.00
2022-10-20T11:10:26.372Z,1.97
2022-10-20T11:13:12.283Z,2.00
2022-10-20T11:15:55.160Z,2.13
2022-10-20T11:18:41.014Z,1.83
2022-10-20T11:21:20.545Z,1.80
2022-10-20T11:23:56.464Z,1.83
2022-10-20T11:26:25.477Z,1.87
2022-10-20T11:28:56.755Z,2.10
2022-10-20T11:31:35.735Z,2.10
2022-10-20T11:34:07.427Z,2.20
2022-10-20T11:36:55.983Z,2.20
2022-10-20T11:39:25.901Z,2.00
2022-10-20T11:41:54.825Z,2.00
2022-10-20T11:44:34.129Z,1.90
2022-10-20T11:47:02.685Z,2.30
2022-10-20T11:49:32.080Z,2.10
2022-10-20T11:52:04.922Z,2.00
2022-10-20T11:54:41.421Z,2.20
2022-10-20T11:57:24.466Z,2.00
2022-10-20T11:59:54.477Z,1.80
2022-10-20T12:02:36.393Z,2.10
2022-10-20T12:05:06.362Z,2.10
2022-10-20T12:07:49.774Z,2.20
2022-10-20T12:10:16.890Z,2.03
2022-10-20T12:12:50.183Z,2.13
2022-10-20T12:15:22.306Z,2.40
2022-10-20T12:17:49.588Z,2.47
2022-10-20T12:20:22.617Z,2.40
2022-10-20T12:22:53.566Z,2.03
2022-10-20T12:25:20.571Z,2.57
2022-10-20T12:27:47.681Z,2.23
2022-10-20T12:30:20.814Z,2.47
2022-10-20T12:32:53.939Z,2.40
2022-10-20T12:35:20.926Z,2.33
2022-10-20T12:37:58.708Z,2.43
2022-10-20T12:40:41.494Z,2.17
2022-10-20T12:43:23.248Z,2.33
2022-10-20T12:45:50.806Z,2.37
2022-10-20T12:48:22.178Z,2.23
2022-10-20T12:50:50.081Z,2.90
2022-10-20T12:53:19.922Z,2.40
2022-10-20T12:56:00.129Z,2.90
2022-10-20T12:58:28.618Z,2.67
2022-10-20T13:00:58.271Z,2.60
2022-10-20T13:03:40.911Z,3.37
2022-10-20T13:06:23.247Z,2.80
2022-10-20T13:09:10.242Z,3.03
2022-10-20T13:11:46.579Z,3.20
2022-10-20T13:14:13.623Z,3.13
2022-10-20T13:16:42.715Z,3.10
2022-10-20T13:19:10.125Z,2.90
2022-10-20T13:21:37.459Z,3.10
2022-10-20T13:24:06.473Z,3.37
2022-10-20T13:26:47.182Z,3.10
2022-10-20T13:29:26.085Z,3.13
2022-10-20T13:32:03.761Z,3.27
2022-10-20T13:34:50.047Z,3.50
2022-10-20T13:37:22.414Z,3.23
2022-10-20T13:40:01.958Z,3.20
2022-10-20T13:42:28.975Z,3.80
2022-10-20T13:45:15.449Z,3.20
2022-10-20T13:47:47.667Z,3.57
2022-10-20T13:50:14.807Z,3.67
2022-10-20T13:52:43.174Z,3.80
2022-10-20T13:55:16.057Z,3.83
2022-10-20T13:57:55.303Z,4.10
2022-10-20T14:00:30.158Z,3.83
2022-10-20T14:03:00.383Z,3.90
2022-10-20T14:05:28.846Z,3.80
2022-10-20T14:07:55.977Z,4.60
2022-10-20T14:10:29.171Z,4.03
2022-10-20T14:12:57.017Z,4.17
2022-10-20T14:15:27.848Z,4.17
2022-10-20T14:18:05.450Z,4.60
2022-10-20T14:20:34.027Z,4.20
2022-10-20T14:23:03.099Z,4.47
2022-10-20T14:25:31.384Z,4.50
2022-10-20T14:27:59.091Z,4.80
2022-10-20T14:30:26.610Z,4.70
2022-10-20T14:32:54.642Z,4.57
2022-10-20T14:35:41.426Z,4.60
2022-10-20T14:38:16.229Z,4.87
2022-10-20T14:40:49.249Z,4.87
2022-10-20T14:43:18.852Z,5.00
2022-10-20T14:45:52.659Z,4.83
2022-10-20T14:48:19.730Z,4.87
2022-10-20T14:50:46.835Z,5.30
2022-10-20T14:53:29.017Z,5.47
2022-10-20T14:55:57.374Z,5.10
2022-10-20T14:58:31.647Z,5.03
2022-10-20T15:01:15.670Z,4.93
2022-10-20T15:03:42.911Z,4.47
2022-10-20T15:06:13.815Z,4.67
2022-10-20T15:08:52.674Z,4.87
2022-10-20T15:11:27.074Z,4.73
2022-10-20T15:13:55.931Z,4.70
2022-10-20T15:16:52.073Z,4.50
2022-10-20T15:19:25.236Z,4.80
2022-10-20T15:22:01.174Z,4.33
2022-10-20T15:24:28.859Z,4.20
2022-10-20T15:26:56.618Z,4.10
2022-10-20T15:29:23.725Z,4.47
2022-10-20T15:31:50.814Z,4.30
2022-10-20T15:34:17.960Z,4.30
2022-10-20T15:36:47.578Z,4.13
2022-10-20T15:39:17.558Z,3.90
2022-10-20T15:41:44.576Z,4.13
2022-10-20T15:44:14.477Z,3.80
2022-10-20T15:46:42.453Z,3.90
2022-10-20T15:49:09.914Z,3.93
2022-10-20T15:51:38.255Z,3.80
2022-10-20T15:54:05.304Z,3.83
2022-10-20T15:56:32.938Z,4.37
2022-10-20T15:59:00.176Z,3.83
2022-10-20T16:01:28.093Z,4.13
2022-10-20T16:03:55.791Z,4.10
2022-10-20T16:06:22.890Z,3.60
2022-10-20T16:08:50.818Z,4.20
2022-10-20T16:11:18.905Z,3.87
2022-10-20T16:13:45.982Z,3.40
2022-10-20T16:16:14.089Z,3.90
2022-10-20T16:18:41.158Z,3.87
2022-10-20T16:21:08.508Z,3.97
2022-10-20T16:23:40.609Z,3.70
2022-10-20T16:26:10.358Z,3.80
2022-10-20T16:28:37.702Z,3.70
2022-10-20T16:31:05.438Z,3.60
2022-10-20T16:33:32.676Z,3.70
2022-10-20T16:36:01.531Z,3.90
2022-10-20T16:38:28.614Z,3.93
2022-10-20T16:40:59.509Z,4.10
2022-10-20T16:43:26.591Z,4.00
2022-10-20T16:45:53.716Z,4.33
2022-10-20T16:48:20.918Z,3.93
2022-10-20T16:50:48.105Z,4.30
2022-10-20T16:53:15.377Z,4.03
2022-10-20T16:55:51.008Z,4.27
2022-10-20T16:58:18.053Z,4.23
2022-10-20T17:00:45.180Z,4.10
2022-10-20T17:03:14.108Z,4.10
2022-10-20T17:05:42.874Z,4.10
2022-10-20T17:08:09.891Z,4.10
2022-10-20T17:10:38.600Z,3.97
2022-10-20T17:13:05.670Z,4.30
2022-10-20T17:15:32.725Z,4.40
2022-10-20T17:17:59.801Z,4.40
2022-10-20T17:20:26.850Z,3.90
2022-10-20T17:22:56.782Z,4.57
2022-10-20T17:25:23.884Z,3.93
2022-10-20T17:27:50.908Z,4.50
2022-10-20T17:30:17.962Z,4.17
2022-10-20T17:32:44.968Z,3.93
2022-10-20T17:35:12.602Z,3.90
2022-10-20T17:37:39.615Z,4.23
2022-10-20T17:40:07.014Z,4.17
2022-10-20T17:42:34.275Z,4.20
2022-10-20T17:45:01.424Z,4.10
2022-10-20T17:47:28.454Z,4.00
2022-10-20T17:49:55.502Z,4.03
2022-10-20T17:52:22.527Z,3.93
2022-10-20T17:54:49.543Z,3.80
2022-10-20T17:57:16.564Z,3.97
2022-10-20T17:59:52.772Z,3.57
2022-10-20T18:02:23.581Z,3.87
2022-10-20T18:04:51.151Z,4.03
2022-10-20T18:07:18.246Z,3.80
2022-10-20T18:09:45.297Z,3.83
2022-10-20T18:12:12.736Z,3.50
2022-10-20T18:14:39.820Z,3.57
2022-10-20T18:17:06.966Z,3.83
2022-10-20T18:19:34.000Z,3.90
2022-10-20T18:22:01.038Z,3.60
2022-10-20T18:24:28.086Z,3.20
2022-10-20T18:26:55.116Z,3.20
2022-10-20T18:29:22.159Z,3.47
2022-10-20T18:31:51.218Z,3.50
2022-10-20T18:34:22.168Z,3.40
2022-10-20T18:36:50.146Z,3.43
2022-10-20T18:39:17.924Z,3.37
2022-10-20T18:41:46.335Z,3.20
2022-10-20T18:44:14.806Z,2.97
2022-10-20T18:46:42.116Z,3.10
2022-10-20T18:49:09.742Z,3.00
2022-10-20T18:51:37.503Z,3.30
2022-10-20T18:54:05.605Z,3.20
2022-10-20T18:56:32.747Z,2.87
2022-10-20T18:59:00.712Z,2.97
2022-10-20T19:01:29.341Z,2.97
2022-10-20T19:03:57.405Z,2.80
2022-10-20T19:06:28.839Z,3.03
2022-10-20T19:08:57.225Z,2.90
2022-10-20T19:11:26.268Z,2.70
2022-10-20T19:13:53.805Z,2.50
2022-10-20T19:16:23.029Z,3.20
2022-10-20T19:18:51.152Z,3.00
2022-10-20T19:21:18.695Z,2.63
2022-10-20T19:23:48.170Z,3.03
2022-10-20T19:26:18.075Z,2.80
2022-10-20T19:28:47.298Z,3.10
2022-10-20T19:31:23.299Z,2.53
2022-10-20T19:33:51.991Z,2.90
2022-10-20T19:36:19.193Z,2.60
2022-10-20T19:38:46.486Z,2.80
2022-10-20T19:41:13.847Z,2.60
2022-10-20T19:43:40.880Z,2.77
2022-10-20T19:46:09.124Z,2.90
2022-10-20T19:48:36.317Z,2.93
2022-10-20T19:51:03.415Z,2.80
2022-10-20T19:53:30.584Z,2.63
2022-10-20T19:55:57.896Z,2.90
2022-10-20T19:58:25.000Z,2.83
2022-10-20T20:00:53.361Z,3.00
2022-10-20T20:03:20.591Z,2.70
2022-10-20T20:05:48.424Z,3.03
2022-10-20T20:08:15.855Z,3.20
2022-10-20T20:10:51.181Z,2.90
2022-10-20T20:13:18.223Z,2.93
2022-10-20T20:15:45.348Z,3.07
2022-10-20T20:18:13.658Z,3.10
2022-10-20T20:20:41.302Z,2.90
2022-10-20T20:23:08.342Z,2.77
2022-10-20T20:25:39.130Z,3.07
2022-10-20T20:28:06.433Z,3.17
2022-10-20T20:30:34.017Z,3.20
2022-10-20T20:33:01.498Z,3.50
2022-10-20T20:35:28.945Z,3.13
2022-10-20T20:37:55.986Z,3.60
2022-10-20T20:40:23.006Z,3.20
2022-10-20T20:42:50.127Z,3.20
2022-10-20T20:45:17.227Z,3.30
2022-10-20T20:47:46.694Z,3.83
2022-10-20T20:50:13.742Z,3.30
2022-10-20T20:52:40.812Z,3.33
2022-10-20T20:55:08.550Z,3.73
2022-10-20T20:57:35.905Z,3.33
2022-10-20T21:00:03.293Z,3.73
2022-10-20T21:02:30.407Z,4.00
2022-10-20T21:04:57.539Z,3.50
2022-10-20T21:07:24.727Z,3.83
2022-10-20T21:09:51.821Z,4.27
2022-10-20T21:12:18.987Z,4.00
2022-10-20T21:14:47.914Z,4.07
2022-10-20T21:17:14.997Z,3.73
2022-10-20T21:19:42.080Z,3.93
2022-10-20T21:22:09.125Z,3.90
2022-10-20T21:24:36.201Z,4.03
2022-10-20T21:27:03.481Z,3.77
2022-10-20T21:29:30.607Z,3.97
2022-10-20T21:31:58.381Z,4.20
2022-10-20T21:34:26.183Z,4.03
2022-10-20T21:36:53.286Z,3.93
2022-10-20T21:39:20.420Z,4.13
2022-10-20T21:41:49.620Z,4.30
2022-10-20T21:44:16.749Z,3.63
2022-10-20T21:46:50.927Z,4.50
2022-10-20T21:49:19.216Z,4.37
2022-10-20T21:51:48.269Z,4.63
2022-10-20T21:54:16.493Z,4.70
2022-10-20T21:56:47.007Z,4.27
2022-10-20T21:59:17.775Z,4.37
2022-10-20T22:01:44.958Z,4.43
2022-10-20T22:04:12.024Z,4.17
2022-10-20T22:06:39.365Z,4.13
2022-10-20T22:09:06.894Z,4.40
2022-10-20T22:11:38.612Z,3.93
2022-10-20T22:14:06.145Z,3.83
2022-10-20T22:16:34.830Z,4.37
2022-10-20T22:19:22.103Z,4.83
2022-10-20T22:21:50.016Z,4.50
2022-10-20T22:24:18.633Z,4.23
2022-10-20T22:26:45.704Z,4.30
2022-10-20T22:29:12.796Z,4.03
2022-10-20T22:31:40.543Z,4.50
2022-10-20T22:34:08.147Z,4.50
2022-10-20T22:36:35.214Z,4.90
2022-10-20T22:39:02.422Z,4.63
2022-10-20T22:41:29.570Z,4.53
2022-10-20T22:43:57.800Z,4.40
2022-10-20T22:46:24.899Z,4.70
2022-10-20T22:48:51.977Z,4.67
2022-10-20T22:51:19.059Z,4.37
2022-10-20T22:53:46.089Z,4.80
2022-10-20T22:56:15.529Z,4.97
2022-10-20T22:58:42.920Z,4.53
2022-10-20T23:01:11.161Z,4.50
2022-10-20T23:03:38.381Z,4.90
2022-10-20T23:06:15.641Z,4.90
2022-10-20T23:08:47.185Z,5.10
2022-10-20T23:11:15.293Z,4.90
2022-10-20T23:13:42.362Z,4.87
2022-10-20T23:16:09.802Z,5.20
2022-10-20T23:18:37.271Z,5.10
2022-10-20T23:21:04.762Z,4.70
2022-10-20T23:23:32.706Z,5.03
2022-10-20T23:26:02.307Z,4.93
2022-10-20T23:28:31.650Z,4.50
2022-10-20T23:31:05.268Z,5.13
2022-10-20T23:33:32.332Z,4.67
2022-10-20T23:35:59.366Z,4.97
2022-10-20T23:38:26.430Z,4.90
2022-10-20T23:40:53.479Z,4.70
2022-10-20T23:43:20.560Z,5.20
2022-10-20T23:45:47.567Z,4.93
2022-10-20T23:48:14.623Z,5.17
2022-10-20T23:50:43.159Z,5.17
2022-10-20T23:53:10.277Z,5.17
2022-10-20T23:55:37.317Z,4.90
2022-10-20T23:58:04.386Z,4.77
